createdAt,value
2023-04-13T00:00:47.966Z,99032.22
2023-04-13T00:03:17.564Z,99030.09
2023-04-13T00:05:47.011Z,99042.44
2023-04-13T00:08:17.172Z,99032.22
2023-04-13T00:10:46.499Z,99036.66
2023-04-13T00:13:14.830Z,99029.75
2023-04-13T00:15:44.054Z,99027.78
2023-04-13T00:18:12.485Z,99022.22
2023-04-13T00:20:41.783Z,99025.53
2023-04-13T00:23:10.105Z,99018.81
2023-04-13T00:25:37.893Z,99018.47
2023-04-13T00:28:07.199Z,99003.34
2023-04-13T00:30:35.103Z,99015.06
2023-04-13T00:33:05.864Z,98996.41
2023-04-13T00:35:33.834Z,99008.06
2023-04-13T00:38:02.808Z,99005.81
2023-04-13T00:40:31.086Z,98996.09
2023-04-13T00:43:00.543Z,98994.97
2023-04-13T00:45:30.440Z,98995.28
2023-04-13T00:48:00.228Z,98997.25
2023-04-13T00:50:28.417Z,98999.88
2023-04-13T00:52:57.950Z,98997.75
2023-04-13T00:55:27.599Z,98999.56
2023-04-13T00:57:55.436Z,99003.34
2023-04-13T01:00:24.857Z,99005.97
2023-04-13T01:02:56.959Z,98995.97
2023-04-13T01:05:26.573Z,98997.59
2023-04-13T01:08:01.580Z,98994.31
2023-04-13T01:10:34.517Z,99007.31
2023-04-13T01:13:12.128Z,98998.59
2023-04-13T01:15:54.690Z,99000.25
2023-04-13T01:21:16.237Z,98982.44
2023-04-13T01:23:52.310Z,98988.06
2023-04-13T01:26:22.558Z,99000.91
2023-04-13T01:28:52.991Z,99001.22
2023-04-13T01:31:22.431Z,99003.50
2023-04-13T01:33:50.525Z,98999.56
2023-04-13T01:36:19.230Z,98989.25
2023-04-13T01:38:47.229Z,99002.88
2023-04-13T01:41:16.276Z,99009.78
2023-04-13T01:43:46.250Z,98985.13
2023-04-13T01:46:17.550Z,98994.47
2023-04-13T01:49:11.252Z,98995.75
2023-04-13T01:52:09.642Z,98995.97
2023-04-13T01:54:41.330Z,98998.75
2023-04-13T01:57:12.795Z,98998.91
2023-04-13T01:59:40.553Z,99008.13
2023-04-13T02:02:17.077Z,98999.41
2023-04-13T02:04:45.056Z,98985.44
2023-04-13T02:07:12.932Z,99001.22
2023-04-13T02:09:46.872Z,98997.31
2023-04-13T02:12:16.855Z,99001.75
2023-04-13T02:14:44.585Z,99000.72
2023-04-13T02:17:14.244Z,99004.53
2023-04-13T02:19:41.992Z,99004.22
2023-04-13T02:22:09.788Z,99005.19
2023-04-13T02:24:37.490Z,99003.19
2023-04-13T02:27:05.510Z,98986.34
2023-04-13T02:29:33.279Z,99004.31
2023-04-13T02:32:01.471Z,99006.34
2023-04-13T02:34:30.912Z,99007.63
2023-04-13T02:36:58.725Z,98998.75
2023-04-13T02:39:26.522Z,98999.25
2023-04-13T02:41:55.929Z,99002.25
2023-04-13T02:44:23.724Z,98994.00
2023-04-13T02:46:58.076Z,99003.69
2023-04-13T02:49:26.030Z,98994.50
2023-04-13T02:52:01.472Z,98992.34
2023-04-13T02:54:44.075Z,99002.38
2023-04-13T02:57:13.428Z,99010.78
2023-04-13T02:59:43.179Z,99006.50
2023-04-13T03:02:12.619Z,99008.13
2023-04-13T03:04:40.695Z,99009.63
2023-04-13T03:07:10.619Z,99004.22
2023-04-13T03:09:44.725Z,99005.53
2023-04-13T03:12:12.692Z,99009.63
2023-04-13T03:14:43.166Z,99000.25
2023-04-13T03:17:12.581Z,98999.28
2023-04-13T03:19:42.649Z,99011.66
2023-04-13T03:22:13.085Z,99006.53
2023-04-13T03:24:46.229Z,99002.56
2023-04-13T03:27:21.236Z,99012.59
2023-04-13T03:29:50.468Z,99025.28
2023-04-13T03:32:22.704Z,99005.22
2023-04-13T03:34:57.713Z,99004.38
2023-04-13T03:37:29.985Z,99006.69
2023-04-13T03:40:01.959Z,99014.25
2023-04-13T03:42:34.525Z,99017.41
2023-04-13T03:45:02.287Z,99020.03
2023-04-13T03:47:30.212Z,99029.22
2023-04-13T03:49:58.180Z,99029.06
2023-04-13T03:52:28.039Z,99019.34
2023-04-13T03:55:00.228Z,99032.38
2023-04-13T03:57:32.307Z,99033.34
2023-04-13T04:00:01.449Z,99034.03
2023-04-13T04:02:47.582Z,99029.88
2023-04-13T04:05:23.378Z,99028.53
2023-04-13T04:08:01.315Z,99033.19
2023-04-13T04:10:29.912Z,99030.53
2023-04-13T04:12:59.304Z,99039.13
2023-04-13T04:15:28.907Z,99021.66
2023-04-13T04:18:02.297Z,99035.66
2023-04-13T04:20:31.168Z,99042.06
2023-04-13T04:23:04.843Z,99046.66
2023-04-13T04:25:40.614Z,99045.69
2023-04-13T04:28:08.832Z,99046.81
2023-04-13T04:30:36.694Z,99049.97
2023-04-13T04:33:07.237Z,99046.13
2023-04-13T04:35:43.207Z,99060.66
2023-04-13T04:38:12.345Z,99064.72
2023-04-13T04:40:45.074Z,99077.22
2023-04-13T04:43:15.650Z,99080.50
2023-04-13T04:45:51.965Z,99075.25
2023-04-13T04:48:20.858Z,99089.09
2023-04-13T04:50:49.534Z,99088.56
2023-04-13T04:53:19.462Z,99090.06
2023-04-13T04:55:47.471Z,99094.00
2023-04-13T04:58:26.890Z,99113.44
2023-04-13T05:00:57.985Z,99109.97
2023-04-13T05:03:26.078Z,99130.53
2023-04-13T05:06:04.850Z,99104.06
2023-04-13T05:08:35.932Z,99106.53
2023-04-13T05:11:07.158Z,99108.47
2023-04-13T05:13:35.640Z,99105.84
2023-04-13T05:16:15.425Z,99109.75
2023-04-13T05:18:47.038Z,99114.03
2023-04-13T05:21:40.847Z,99121.94
2023-04-13T05:24:11.638Z,99135.84
2023-04-13T05:26:40.886Z,99144.44
2023-04-13T05:29:09.311Z,99138.34
2023-04-13T05:31:40.999Z,99154.34
2023-04-13T05:34:08.786Z,99159.53
2023-04-13T05:36:39.161Z,99165.34
2023-04-13T05:39:13.912Z,99177.59
2023-04-13T05:41:41.684Z,99186.31
2023-04-13T05:44:09.732Z,99186.75
2023-04-13T05:46:38.659Z,99195.25
2023-04-13T05:49:08.250Z,99209.47
2023-04-13T05:51:36.443Z,99218.88
2023-04-13T05:54:04.510Z,99212.78
2023-04-13T05:56:34.638Z,99213.63
2023-04-13T05:59:03.622Z,99217.22
2023-04-13T06:01:31.755Z,99227.91
2023-04-13T06:04:04.013Z,99207.69
2023-04-13T06:06:36.681Z,99223.53
2023-04-13T06:09:08.868Z,99239.25
2023-04-13T06:11:38.548Z,99245.84
2023-04-13T06:14:06.732Z,99256.56
2023-04-13T06:16:34.564Z,99259.53
2023-04-13T06:19:02.592Z,99264.34
2023-04-13T06:21:33.474Z,99278.06
2023-04-13T06:24:01.432Z,99282.50
2023-04-13T06:26:34.484Z,99278.34
2023-04-13T06:29:04.623Z,99284.97
2023-04-13T06:31:42.002Z,99285.94
2023-04-13T06:34:14.667Z,99292.50
2023-04-13T06:36:43.419Z,99301.59
2023-04-13T06:39:18.828Z,99301.81
2023-04-13T06:41:55.953Z,99294.06
2023-04-13T06:44:45.164Z,99298.88
2023-04-13T06:47:12.863Z,99288.63
2023-04-13T06:49:43.650Z,99303.84
2023-04-13T06:52:15.268Z,99298.88
2023-04-13T06:54:43.363Z,99304.81
2023-04-13T06:57:23.136Z,99301.50
2023-04-13T06:59:52.213Z,99309.69
2023-04-13T07:02:21.819Z,99308.19
2023-04-13T07:04:50.252Z,99304.59
2023-04-13T07:07:18.598Z,99308.13
2023-04-13T07:09:51.100Z,99303.47
2023-04-13T07:12:19.213Z,99322.03
2023-04-13T07:14:48.163Z,99327.31
2023-04-13T07:17:20.647Z,99335.44
2023-04-13T07:19:50.018Z,99334.47
2023-04-13T07:22:18.770Z,99337.94
2023-04-13T07:24:48.235Z,99344.06
2023-04-13T07:27:19.410Z,99348.25
2023-04-13T07:29:49.158Z,99348.13
2023-04-13T07:32:24.534Z,99340.88
2023-04-13T07:35:01.192Z,99334.06
2023-04-13T07:37:31.355Z,99346.53
2023-04-13T07:39:59.151Z,99348.75
2023-04-13T07:42:27.218Z,99352.78
2023-04-13T07:44:56.334Z,99356.16
2023-04-13T07:47:26.560Z,99360.59
2023-04-13T07:49:59.698Z,99357.00
2023-04-13T07:52:29.112Z,99367.69
2023-04-13T07:54:56.803Z,99369.53
2023-04-13T07:57:26.179Z,99374.78
2023-04-13T07:59:59.095Z,99370.53
2023-04-13T08:02:28.691Z,99378.56
2023-04-13T08:04:59.668Z,99378.22
2023-04-13T08:07:30.551Z,99382.81
2023-04-13T08:09:58.543Z,99386.81
2023-04-13T08:12:29.521Z,99389.81
2023-04-13T08:14:57.351Z,99385.56
2023-04-13T08:17:25.618Z,99402.19
2023-04-13T08:19:54.781Z,99398.94
2023-04-13T08:22:22.631Z,99393.66
2023-04-13T08:24:50.430Z,99400.75
2023-04-13T08:27:19.762Z,99404.81
2023-04-13T08:29:47.911Z,99405.63
2023-04-13T08:32:16.271Z,99408.72
2023-04-13T08:34:44.243Z,99409.25
2023-04-13T08:37:15.974Z,99408.97
2023-04-13T08:39:45.278Z,99407.97
2023-04-13T08:42:14.470Z,99429.06
2023-04-13T08:44:43.466Z,99420.25
2023-04-13T08:47:12.013Z,99426.72
2023-04-13T08:49:41.811Z,99438.94
2023-04-13T08:52:19.454Z,99428.38
2023-04-13T08:54:54.602Z,99432.28
2023-04-13T08:57:30.468Z,99438.38
2023-04-13T08:59:59.667Z,99430.75
2023-04-13T09:02:32.867Z,99441.84
2023-04-13T09:05:15.794Z,99454.03
2023-04-13T09:07:53.669Z,99462.63
2023-04-13T09:10:22.394Z,99452.91
2023-04-13T09:12:51.305Z,99458.53
2023-04-13T09:15:19.633Z,99461.16
2023-04-13T09:18:09.942Z,99456.94
2023-04-13T09:20:42.930Z,99460.41
2023-04-13T09:23:17.072Z,99468.53
2023-04-13T09:25:46.784Z,99471.31
2023-04-13T09:28:18.780Z,99474.44
2023-04-13T09:30:47.139Z,99476.16
2023-04-13T09:33:16.307Z,99489.94
2023-04-13T09:35:43.984Z,99498.16
2023-04-13T09:38:15.290Z,99497.34
2023-04-13T09:40:51.556Z,99502.75
2023-04-13T09:43:19.462Z,99512.03
2023-04-13T09:45:47.370Z,99513.69
2023-04-13T09:48:20.573Z,99510.41
2023-04-13T09:50:59.446Z,99518.06
2023-04-13T09:53:28.754Z,99514.78
2023-04-13T09:56:01.258Z,99511.00
2023-04-13T09:58:31.429Z,99516.19
2023-04-13T10:00:59.457Z,99503.00
2023-04-13T10:03:28.571Z,99515.94
2023-04-13T10:06:00.408Z,99512.00
2023-04-13T10:11:02.505Z,99510.44
2023-04-13T10:13:36.852Z,99510.19
2023-04-13T10:16:24.266Z,99509.75
2023-04-13T10:19:00.369Z,99519.78
2023-04-13T10:21:33.536Z,99520.66
2023-04-13T10:24:01.639Z,99520.84
2023-04-13T10:26:34.526Z,99541.03
2023-04-13T10:29:03.241Z,99549.97
2023-04-13T10:31:39.034Z,99529.66
2023-04-13T10:34:07.241Z,99540.88
2023-04-13T10:36:39.622Z,99540.25
2023-04-13T10:39:08.293Z,99555.66
2023-04-13T10:41:38.061Z,99553.31
2023-04-13T10:44:07.779Z,99558.78
2023-04-13T10:46:36.596Z,99562.25
2023-04-13T10:49:06.919Z,99560.75
2023-04-13T10:51:41.443Z,99553.13
2023-04-13T10:54:10.071Z,99560.31
2023-04-13T10:56:40.219Z,99565.63
2023-04-13T10:59:08.397Z,99576.97
2023-04-13T11:01:36.455Z,99556.47
2023-04-13T11:04:06.854Z,99562.25
2023-04-13T11:06:38.925Z,99564.06
2023-04-13T11:09:08.154Z,99568.03
2023-04-13T11:11:37.325Z,99564.06
2023-04-13T11:14:06.457Z,99574.94
2023-04-13T11:16:44.969Z,99566.31
2023-04-13T11:19:12.851Z,99577.19
2023-04-13T11:21:40.746Z,99578.66
2023-04-13T11:24:10.102Z,99573.34
2023-04-13T11:26:38.857Z,99561.59
2023-04-13T11:29:19.979Z,99572.22
2023-04-13T11:31:48.048Z,99584.75
2023-04-13T11:34:25.812Z,99576.88
2023-04-13T11:37:02.270Z,99583.16
2023-04-13T11:39:32.114Z,99584.81
2023-04-13T11:42:05.988Z,99582.56
2023-04-13T11:44:36.929Z,99589.84
2023-04-13T11:47:05.885Z,99596.97
2023-04-13T11:49:34.127Z,99597.16
2023-04-13T11:52:03.332Z,99591.84
2023-04-13T11:54:31.827Z,99601.44
2023-04-13T11:56:59.651Z,99597.63
2023-04-13T11:59:29.059Z,99606.06
2023-04-13T12:02:02.888Z,99602.91
2023-04-13T12:04:38.180Z,99618.75
2023-04-13T12:07:13.402Z,99616.88
2023-04-13T12:09:55.952Z,99625.47
2023-04-13T12:17:39.427Z,99625.47
2023-04-13T12:20:16.219Z,99622.72
2023-04-13T12:22:54.881Z,99624.88
2023-04-13T12:25:35.603Z,99623.41
2023-04-13T12:28:04.581Z,99623.31
2023-04-13T12:30:34.162Z,99619.78
2023-04-13T12:33:03.444Z,99630.13
2023-04-13T12:35:31.279Z,99617.06
2023-04-13T12:38:00.141Z,99623.88
2023-04-13T12:40:27.883Z,99630.97
2023-04-13T12:42:55.761Z,99636.84
2023-04-13T12:45:23.690Z,99639.41
2023-04-13T12:47:51.510Z,99636.28
2023-04-13T12:50:20.664Z,99646.19
2023-04-13T12:52:49.835Z,99639.31
2023-04-13T12:55:18.220Z,99632.91
2023-04-13T12:57:45.930Z,99636.75
2023-04-13T13:00:15.822Z,99637.31
2023-04-13T13:02:43.880Z,99646.09
2023-04-13T13:05:11.925Z,99640.94
2023-04-13T13:07:41.035Z,99635.66
2023-04-13T13:10:25.786Z,99640.22
2023-04-13T13:12:57.201Z,99654.69
2023-04-13T13:15:24.995Z,99663.88
2023-04-13T13:17:52.860Z,99647.13
2023-04-13T13:20:20.766Z,99658.41
2023-04-13T13:22:49.831Z,99667.91
2023-04-13T13:25:17.587Z,99665.13
2023-04-13T13:30:16.554Z,99659.97
2023-04-13T13:32:44.337Z,99661.72
2023-04-13T13:35:12.080Z,99668.09
2023-04-13T13:37:39.849Z,99668.38
2023-04-13T13:40:13.031Z,99673.91
2023-04-13T13:42:51.330Z,99693.28
2023-04-13T13:45:19.378Z,99679.31
2023-04-13T13:47:47.494Z,99678.16
2023-04-13T13:50:15.400Z,99682.25
2023-04-13T13:52:59.724Z,99688.44
2023-04-13T13:55:34.658Z,99671.63
2023-04-13T13:58:02.413Z,99680.19
2023-04-13T14:00:30.117Z,99671.97
2023-04-13T14:02:58.016Z,99682.84
2023-04-13T14:05:26.397Z,99683.28
2023-04-13T14:07:54.308Z,99662.75
2023-04-13T14:10:22.189Z,99690.44
2023-04-13T14:12:51.908Z,99674.53
2023-04-13T14:15:19.807Z,99677.81
2023-04-13T14:17:58.722Z,99671.66
2023-04-13T14:20:35.687Z,99672.69
2023-04-13T14:23:03.557Z,99680.69
2023-04-13T14:25:31.386Z,99678.47
2023-04-13T14:28:00.909Z,99682.69
2023-04-13T14:30:28.955Z,99685.38
2023-04-13T14:32:57.256Z,99686.53
2023-04-13T14:35:25.172Z,99679.03
2023-04-13T14:37:53.224Z,99679.94
2023-04-13T14:40:23.249Z,99692.63
2023-04-13T14:42:52.844Z,99685.63
2023-04-13T14:45:22.215Z,99683.06
2023-04-13T14:47:50.052Z,99694.28
2023-04-13T14:50:18.137Z,99681.22
2023-04-13T14:52:46.616Z,99681.16
2023-04-13T14:55:15.005Z,99681.69
2023-04-13T14:57:42.762Z,99674.19
2023-04-13T15:00:15.780Z,99693.63
2023-04-13T15:02:45.265Z,99697.16
2023-04-13T15:05:13.159Z,99699.41
2023-04-13T15:07:42.383Z,99700.56
2023-04-13T15:10:10.402Z,99698.00
2023-04-13T15:12:38.076Z,99709.03
2023-04-13T15:15:06.980Z,99699.34
2023-04-13T15:17:34.814Z,99698.72
2023-04-13T15:20:07.313Z,99710.28
2023-04-13T15:22:36.746Z,99711.56
2023-04-13T15:25:04.818Z,99717.53
2023-04-13T15:27:32.690Z,99706.50
2023-04-13T15:30:03.068Z,99711.09
2023-04-13T15:32:31.357Z,99707.09
2023-04-13T15:34:59.177Z,99708.81
2023-04-13T15:37:28.402Z,99717.13
2023-04-13T15:39:56.162Z,99714.59
2023-04-13T15:42:23.939Z,99716.97
2023-04-13T15:44:51.649Z,99713.00
2023-04-13T15:47:19.398Z,99713.53
2023-04-13T15:49:47.178Z,99713.72
2023-04-13T15:52:14.918Z,99728.34
2023-04-13T15:54:43.972Z,99721.44
2023-04-13T15:57:12.277Z,99724.50
2023-04-13T15:59:40.093Z,99740.25
2023-04-13T16:02:08.455Z,99741.41
2023-04-13T16:04:36.681Z,99741.50
2023-04-13T16:07:12.823Z,99736.34
2023-04-13T16:09:45.014Z,99742.16
2023-04-13T16:12:12.962Z,99737.69
2023-04-13T16:14:41.792Z,99738.69
2023-04-13T16:17:10.393Z,99743.00
2023-04-13T16:19:39.620Z,99736.69
2023-04-13T16:22:10.417Z,99741.00
2023-04-13T16:24:38.591Z,99743.34
2023-04-13T16:27:08.691Z,99748.31
2023-04-13T16:29:36.565Z,99752.94
2023-04-13T16:32:04.323Z,99748.91
2023-04-13T16:34:32.051Z,99753.03
2023-04-13T16:36:59.854Z,99753.81
2023-04-13T16:39:27.616Z,99749.84
2023-04-13T16:41:55.500Z,99766.50
2023-04-13T16:44:24.620Z,99765.09
2023-04-13T16:46:52.432Z,99769.38
2023-04-13T16:49:20.281Z,99765.09
2023-04-13T16:51:48.525Z,99763.53
2023-04-13T16:54:17.786Z,99766.38
2023-04-13T16:56:45.624Z,99769.38
2023-04-13T16:59:13.324Z,99764.72
2023-04-13T17:01:42.403Z,99765.91
2023-04-13T17:04:10.499Z,99763.44
2023-04-13T17:06:39.372Z,99776.13
2023-04-13T17:09:07.130Z,99763.06
2023-04-13T17:11:35.495Z,99773.56
2023-04-13T17:14:03.297Z,99789.59
2023-04-13T17:16:31.113Z,99781.34
2023-04-13T17:19:00.470Z,99783.34
2023-04-13T17:21:28.779Z,99786.09
2023-04-13T17:23:56.536Z,99788.28
2023-04-13T17:26:24.288Z,99792.47
2023-04-13T17:28:52.249Z,99797.97
2023-04-13T17:31:20.152Z,99798.97
2023-04-13T17:33:50.304Z,99805.78
2023-04-13T17:36:21.950Z,99807.44
2023-04-13T17:38:49.763Z,99803.81
2023-04-13T17:41:18.425Z,99811.44
2023-04-13T17:43:46.197Z,99812.75
2023-04-13T17:46:13.950Z,99812.56
2023-04-13T17:48:41.919Z,99817.22
2023-04-13T17:51:11.747Z,99821.50
2023-04-13T17:53:41.046Z,99821.03
2023-04-13T17:56:14.503Z,99831.41
2023-04-13T17:58:42.451Z,99823.63
2023-04-13T18:01:11.556Z,99829.22
2023-04-13T18:03:39.747Z,99836.16
2023-04-13T18:06:08.212Z,99837.41
2023-04-13T18:08:36.189Z,99833.09
2023-04-13T18:11:05.423Z,99842.66
2023-04-13T18:13:34.312Z,99850.91
2023-04-13T18:16:02.261Z,99853.56
2023-04-13T18:18:30.287Z,99848.59
2023-04-13T18:20:58.169Z,99856.63
2023-04-13T18:23:25.888Z,99849.81
2023-04-13T18:25:53.784Z,99851.75
2023-04-13T18:28:22.945Z,99852.34
2023-04-13T18:30:50.917Z,99850.97
2023-04-13T18:33:18.701Z,99853.22
2023-04-13T18:35:46.804Z,99856.50
2023-04-13T18:38:14.684Z,99857.41
2023-04-13T18:40:42.486Z,99859.19
2023-04-13T18:43:10.407Z,99863.63
2023-04-13T18:45:39.902Z,99872.84
2023-04-13T18:48:09.529Z,99879.72
2023-04-13T18:50:37.682Z,99878.53
2023-04-13T18:53:06.111Z,99881.63
2023-04-13T18:55:34.258Z,99881.41
2023-04-13T18:58:02.023Z,99889.75
2023-04-13T19:00:29.726Z,99895.59
2023-04-13T19:02:58.994Z,99893.25
2023-04-13T19:05:27.842Z,99897.88
2023-04-13T19:07:58.658Z,99892.34
2023-04-13T19:10:27.895Z,99896.22
2023-04-13T19:12:56.016Z,99908.06
2023-04-13T19:15:24.010Z,99909.72
2023-04-13T19:17:52.217Z,99922.38
2023-04-13T19:20:23.016Z,99924.34
2023-04-13T19:22:51.905Z,99927.13
2023-04-13T19:25:19.602Z,99940.72
2023-04-13T19:27:48.284Z,99941.78
2023-04-13T19:30:18.012Z,99938.28
2023-04-13T19:32:48.078Z,99946.16
2023-04-13T19:35:16.275Z,99946.69
2023-04-13T19:37:45.416Z,99944.59
2023-04-13T19:40:14.474Z,99954.72
2023-04-13T19:42:43.508Z,99948.28
2023-04-13T19:45:12.257Z,99950.78
2023-04-13T19:47:41.195Z,99956.06
2023-04-13T19:50:10.999Z,99954.41
2023-04-13T19:52:39.505Z,99958.34
2023-04-13T19:55:10.453Z,99973.66
2023-04-13T19:57:42.057Z,99985.13
2023-04-13T20:00:17.949Z,99983.56
2023-04-13T20:02:46.978Z,99992.53
2023-04-13T20:05:15.461Z,99999.50
2023-04-13T20:07:43.370Z,100003.81
2023-04-13T20:10:13.079Z,100015.75
2023-04-13T20:12:40.850Z,100018.25
2023-04-13T20:15:09.320Z,100024.38
2023-04-13T20:17:37.074Z,100030.50
2023-04-13T20:20:06.867Z,100031.22
2023-04-13T20:22:34.684Z,100035.16
2023-04-13T20:25:02.479Z,100037.28
2023-04-13T20:27:31.562Z,100042.59
2023-04-13T20:29:59.849Z,100043.56
2023-04-13T20:32:27.667Z,100045.44
2023-04-13T20:34:55.468Z,100036.97
2023-04-13T20:37:23.299Z,100040.19
2023-04-13T20:39:51.051Z,100040.34
2023-04-13T20:42:19.377Z,100038.97
2023-04-13T20:44:49.175Z,100038.25
2023-04-13T20:47:17.337Z,100039.09
2023-04-13T20:49:49.510Z,100036.22
2023-04-13T20:52:17.900Z,100040.53
2023-04-13T20:54:46.021Z,100040.53
2023-04-13T20:57:14.450Z,100038.47
2023-04-13T20:59:43.280Z,100035.41
2023-04-13T21:02:12.454Z,100040.53
2023-04-13T21:04:41.181Z,100036.75
2023-04-13T21:07:11.063Z,100035.25
2023-04-13T21:09:38.919Z,100040.22
2023-04-13T21:12:06.894Z,100034.94
2023-04-13T21:14:34.609Z,100038.25
2023-04-13T21:17:02.312Z,100036.09
2023-04-13T21:19:32.587Z,100039.44
2023-04-13T21:22:00.328Z,100041.38
2023-04-13T21:24:28.092Z,100032.78
2023-04-13T21:26:56.509Z,100026.91
2023-04-13T21:29:24.335Z,100029.84
2023-04-13T21:31:52.248Z,100028.09
2023-04-13T21:34:20.125Z,100021.94
2023-04-13T21:36:52.028Z,100018.59
2023-04-13T21:39:20.320Z,100022.75
2023-04-13T21:41:48.064Z,100019.00
2023-04-13T21:44:28.785Z,100018.84
2023-04-13T21:46:57.360Z,100024.28
2023-04-13T21:49:25.180Z,100020.53
2023-04-13T21:51:54.270Z,100019.97
2023-04-13T21:54:22.118Z,100023.88
2023-04-13T21:56:50.031Z,100021.94
2023-04-13T21:59:17.775Z,100021.38
2023-04-13T22:01:46.920Z,100021.69
2023-04-13T22:04:15.040Z,100022.34
2023-04-13T22:06:42.855Z,100022.34
2023-04-13T22:09:12.542Z,100017.22
2023-04-13T22:11:40.901Z,100014.88
2023-04-13T22:14:08.791Z,100020.75
2023-04-13T22:16:36.631Z,100016.03
2023-04-13T22:19:04.380Z,100026.19
2023-04-13T22:21:34.690Z,100014.53
2023-04-13T22:24:02.501Z,100023.75
2023-04-13T22:26:31.610Z,100035.00
2023-04-13T22:28:59.847Z,100033.63
2023-04-13T22:31:27.918Z,100029.91
2023-04-13T22:33:56.413Z,100029.34
2023-04-13T22:36:24.173Z,100021.59
2023-04-13T22:38:51.982Z,100030.19
2023-04-13T22:41:19.755Z,100030.47
2023-04-13T22:43:48.807Z,100032.59
2023-04-13T22:46:16.691Z,100032.03
2023-04-13T22:48:44.487Z,100036.63
2023-04-13T22:51:12.249Z,100033.69
2023-04-13T22:53:39.961Z,100035.75
2023-04-13T22:56:08.046Z,100039.66
2023-04-13T22:58:35.966Z,100034.09
2023-04-13T23:01:05.881Z,100033.13
2023-04-13T23:03:33.759Z,100039.50
2023-04-13T23:06:01.587Z,100041.03
2023-04-13T23:08:30.156Z,100037.56
2023-04-13T23:10:57.914Z,100047.09
2023-04-13T23:13:26.144Z,100042.38
2023-04-13T23:16:00.177Z,100050.28
2023-04-13T23:18:29.771Z,100049.00
2023-04-13T23:20:57.462Z,100042.34
2023-04-13T23:23:25.374Z,100044.13
2023-04-13T23:25:53.229Z,100052.72
2023-04-13T23:28:21.020Z,100047.84
2023-04-13T23:30:48.728Z,100050.22
2023-04-13T23:33:16.434Z,100048.69
2023-04-13T23:35:52.619Z,100056.47
2023-04-13T23:38:20.649Z,100048.38
2023-04-13T23:40:48.365Z,100053.09
2023-04-13T23:43:16.299Z,100056.44
2023-04-13T23:45:44.199Z,100057.00
2023-04-13T23:48:11.980Z,100056.84
2023-04-13T23:50:39.694Z,100048.56
2023-04-13T23:53:08.932Z,100057.03
2023-04-13T23:55:36.732Z,100061.88
2023-04-13T23:58:04.780Z,100049.66
